Austin, Kansas
Current Conditions -  °F | °C
As of 9:52 AM on Friday 24 Oct 2014 (Local Time) from KCNU Reporting Station
Clear Clear  
Wind Chill: 62°   Ceiling: Unl
Heat Index: 62°   Visibility: 10mi
Dew Point: 57°   Wind: 13mph
Humidity: 84%   Direction: 210°SSW
Pressure: 30.09"   Gusts: NA
Location:  37.6378°N, 95.4622°W
Report Text: KCNU 241452Z AUTO 21011KT 10SM CLR 17/14 A3009 RMK AO2 SLP184 T01670139 53003
Loading
Personal Weather Stations






























Interactive Weather Map
Tropical Storm Tracking
New forecast layout! Learn more

10-Day Weather Forecast

Advertisements
Track Severe Weather on mobile